Time;durP1;ratioP1;P1;durP2;ratioP2;P2;SDS_P1;SDS_P2;PMS_P1;PMS_P2;Temp;Humidity;BMP_temperature;BMP_pressure;BME280_temperature;BME280_humidity;BME280_pressure;Samples;Min_cycle;Max_cycle;Signal;HPM_P1;HPM_P2
2023/10/31 08:35:19;;;;;;;0.40;0.40;;;21.30;99.90;;;;;;5142315;27;20630;-89
2023/10/31 08:37:45;;;;;;;0.30;0.20;;;21.20;99.90;;;;;;5121475;28;20651;-93
2023/10/31 08:40:11;;;;;;;0.30;0.20;;;21.20;99.90;;;;;;5114909;28;20723;-95
2023/10/31 08:42:36;;;;;;;0.30;0.20;;;21.10;99.90;;;;;;5114298;28;20753;-92
2023/10/31 08:45:02;;;;;;;0.30;0.30;;;21.20;99.90;;;;;;5114951;28;20184;-89
2023/10/31 08:47:28;;;;;;;0.30;0.30;;;21.20;99.90;;;;;;5112019;27;20372;-89
2023/10/31 08:49:54;;;;;;;0.30;0.20;;;21.20;99.90;;;;;;5107470;28;20471;-95
2023/10/31 08:52:20;;;;;;;0.30;0.20;;;21.10;99.90;;;;;;5118233;27;20178;-89
2023/10/31 08:54:45;;;;;;;0.30;0.20;;;20.90;99.90;;;;;;5114663;28;20218;-94
2023/10/31 08:57:11;;;;;;;0.40;0.20;;;20.80;99.90;;;;;;5108237;28;20683;-88
2023/10/31 08:59:37;;;;;;;0.30;0.20;;;20.70;99.90;;;;;;5117782;28;20458;-92
2023/10/31 09:02:05;;;;;;;0.40;0.40;;;20.70;99.90;;;;;;5099886;28;20611;-88
2023/10/31 09:04:31;;;;;;;0.30;0.20;;;20.70;99.90;;;;;;5100235;28;20196;-93
2023/10/31 09:06:56;;;;;;;0.70;0.67;;;20.70;99.90;;;;;;5115165;28;20439;-87
2023/10/31 09:09:22;;;;;;;0.30;0.20;;;20.60;99.90;;;;;;5103166;28;20215;-87
2023/10/31 09:11:48;;;;;;;0.30;0.20;;;20.50;99.90;;;;;;5113745;27;20425;-87
2023/10/31 09:14:15;;;;;;;0.97;0.97;;;20.50;99.90;;;;;;5106180;28;20558;-89
2023/10/31 09:16:40;;;;;;;0.40;0.30;;;20.40;99.90;;;;;;5105560;27;20424;-92
2023/10/31 09:19:06;;;;;;;0.30;0.20;;;20.30;99.90;;;;;;5106067;28;20796;-93
2023/10/31 09:21:41;;;;;;;0.40;0.40;;;20.30;99.90;;;;;;5112594;28;20176;-93
2023/10/31 09:24:08;;;;;;;0.30;0.20;;;20.30;99.90;;;;;;5117378;28;20214;-88
2023/10/31 09:26:34;;;;;;;5.90;5.40;;;20.30;99.90;;;;;;5103926;28;20563;-93
2023/10/31 09:29:00;;;;;;;0.40;0.40;;;20.30;99.90;;;;;;5104272;28;20524;-88
2023/10/31 09:31:25;;;;;;;0.30;0.20;;;20.30;99.90;;;;;;5114023;28;20559;-92
2023/10/31 09:33:52;;;;;;;0.30;0.20;;;20.30;99.90;;;;;;5103472;28;20267;-88
2023/10/31 09:36:19;;;;;;;0.30;0.20;;;20.30;99.90;;;;;;5102999;28;20207;-88
2023/10/31 09:38:45;;;;;;;0.30;0.20;;;20.30;99.90;;;;;;5116335;27;20458;-88
2023/10/31 09:41:14;;;;;;;0.30;0.30;;;20.30;99.90;;;;;;5115384;28;20430;-88
2023/10/31 09:43:40;;;;;;;0.30;0.20;;;20.30;99.90;;;;;;5113707;27;20195;-89
2023/10/31 09:46:06;;;;;;;0.30;0.20;;;20.30;99.90;;;;;;5089656;28;20974;-89
2023/10/31 09:48:32;;;;;;;0.30;0.20;;;20.40;99.90;;;;;;5100835;28;20475;-88
2023/10/31 09:50:59;;;;;;;0.30;0.20;;;20.40;99.90;;;;;;5088991;28;21083;-88
2023/10/31 09:53:25;;;;;;;0.30;0.20;;;20.30;99.90;;;;;;5084925;28;20468;-90
2023/10/31 09:55:53;;;;;;;1.17;1.07;;;20.40;99.90;;;;;;5101396;28;20507;-88
2023/10/31 09:58:19;;;;;;;0.30;0.20;;;20.40;99.90;;;;;;5110092;28;20661;-87
2023/10/31 10:00:49;;;;;;;0.30;0.20;;;20.50;99.90;;;;;;5097981;28;20499;-88
2023/10/31 10:03:16;;;;;;;0.30;0.20;;;20.50;99.90;;;;;;5092654;28;20208;-93
2023/10/31 10:05:44;;;;;;;0.30;0.20;;;20.50;99.90;;;;;;5099885;27;20430;-88
2023/10/31 10:08:11;;;;;;;2.70;2.50;;;20.50;99.90;;;;;;5100587;28;20452;-93
2023/10/31 10:10:37;;;;;;;0.30;0.20;;;20.50;99.90;;;;;;5093421;28;20424;-88
2023/10/31 10:13:04;;;;;;;0.30;0.20;;;20.60;99.90;;;;;;5095186;28;20493;-93
2023/10/31 10:15:29;;;;;;;0.30;0.20;;;20.60;99.90;;;;;;5085033;28;20412;-89
2023/10/31 10:17:55;;;;;;;0.30;0.20;;;20.60;99.90;;;;;;5095493;28;20976;-93
2023/10/31 10:20:21;;;;;;;0.40;0.40;;;20.70;99.90;;;;;;5091288;28;21000;-89
2023/10/31 10:22:47;;;;;;;0.30;0.20;;;20.70;99.90;;;;;;5098744;28;20332;-94
2023/10/31 10:25:20;;;;;;;1.33;0.57;;;20.70;99.90;;;;;;5112138;28;20247;-92
2023/10/31 10:27:49;;;;;;;0.30;0.20;;;20.80;99.90;;;;;;5104470;28;20407;-93
2023/10/31 10:30:16;;;;;;;0.30;0.20;;;20.80;99.90;;;;;;5098002;27;20409;-93
2023/10/31 10:32:42;;;;;;;0.30;0.20;;;20.80;99.90;;;;;;5089978;28;20436;-94
2023/10/31 10:35:09;;;;;;;0.30;0.20;;;20.80;99.90;;;;;;5102109;28;21117;-89
2023/10/31 10:37:39;;;;;;;0.30;0.20;;;20.80;99.90;;;;;;5101449;28;20180;-93
2023/10/31 10:40:07;;;;;;;0.40;0.37;;;20.90;99.90;;;;;;5097535;28;20443;-94
2023/10/31 10:42:40;;;;;;;0.30;0.20;;;20.90;99.90;;;;;;5085669;28;20427;-89
2023/10/31 10:45:11;;;;;;;0.30;0.20;;;20.90;99.90;;;;;;5098696;28;20428;-94
2023/10/31 10:47:39;;;;;;;0.30;0.20;;;20.90;99.90;;;;;;5105072;28;20436;-94
2023/10/31 10:50:10;;;;;;;0.30;0.20;;;21.00;99.90;;;;;;5098800;28;20875;-90
2023/10/31 10:52:38;;;;;;;0.30;0.20;;;21.00;99.90;;;;;;5088201;28;20410;-94
2023/10/31 10:55:10;;;;;;;0.30;0.20;;;21.00;99.90;;;;;;5095995;28;20469;-94
2023/10/31 10:57:54;;;;;;;0.30;0.20;;;21.10;99.90;;;;;;5097206;28;20412;-88
2023/10/31 11:00:24;;;;;;;3.63;1.13;;;21.10;99.90;;;;;;5095018;28;20558;-94
2023/10/31 11:02:52;;;;;;;0.43;0.40;;;21.10;99.90;;;;;;5088497;28;20508;-88
2023/10/31 11:05:19;;;;;;;0.30;0.30;;;21.20;99.90;;;;;;5094868;28;20987;-94
2023/10/31 11:07:46;;;;;;;1.13;1.03;;;21.20;99.90;;;;;;5087674;28;20481;-94
2023/10/31 11:10:16;;;;;;;0.30;0.20;;;21.30;99.90;;;;;;5088507;27;20444;-89
2023/10/31 11:12:43;;;;;;;0.30;0.20;;;21.30;99.90;;;;;;5101718;28;20494;-94
2023/10/31 11:15:10;;;;;;;0.30;0.20;;;21.40;99.90;;;;;;5093990;28;20477;-88
2023/10/31 11:17:48;;;;;;;3.50;3.30;;;21.40;99.90;;;;;;5097249;28;20459;-89
2023/10/31 11:20:16;;;;;;;0.30;0.30;;;21.40;99.90;;;;;;5091438;28;20439;-88
2023/10/31 11:22:54;;;;;;;0.30;0.20;;;21.30;99.90;;;;;;5094980;28;20431;-88
2023/10/31 11:25:21;;;;;;;0.30;0.20;;;21.30;99.90;;;;;;5086052;28;20755;-89
2023/10/31 11:28:13;;;;;;;0.30;0.20;;;21.30;99.90;;;;;;5093565;28;20772;-93
2023/10/31 11:30:39;;;;;;;0.30;0.20;;;21.30;99.90;;;;;;5086846;27;20977;-88
2023/10/31 11:33:05;;;;;;;0.30;0.20;;;21.30;99.90;;;;;;5098892;28;20492;-94
2023/10/31 11:35:33;;;;;;;0.30;0.20;;;21.20;99.90;;;;;;5090650;28;20448;-94
2023/10/31 11:38:03;;;;;;;1.83;0.60;;;21.30;99.90;;;;;;5101307;27;20884;-94
2023/10/31 11:40:29;;;;;;;0.30;0.30;;;21.30;99.90;;;;;;5109967;27;21142;-94
2023/10/31 11:43:02;;;;;;;0.30;0.20;;;21.40;99.90;;;;;;5110637;28;20601;-89
2023/10/31 11:45:34;;;;;;;0.30;0.20;;;21.30;99.90;;;;;;5110657;27;20819;-94
2023/10/31 11:48:00;;;;;;;8.70;8.13;;;21.30;99.90;;;;;;5105157;28;20478;-88
2023/10/31 11:50:26;;;;;;;0.30;0.20;;;21.30;99.90;;;;;;5087896;28;20468;-88
2023/10/31 11:53:12;;;;;;;0.30;0.20;;;21.30;99.90;;;;;;5098672;27;20428;-94
2023/10/31 11:55:42;;;;;;;0.30;0.20;;;21.30;99.90;;;;;;5096105;27;20168;-89
2023/10/31 11:58:22;;;;;;;0.30;0.20;;;21.30;99.90;;;;;;5091297;28;20980;-95
2023/10/31 12:00:50;;;;;;;0.30;0.20;;;21.40;99.90;;;;;;5090814;28;20492;-94
2023/10/31 12:03:18;;;;;;;0.30;0.20;;;21.50;99.90;;;;;;5090567;27;20583;-88
2023/10/31 12:05:59;;;;;;;0.30;0.20;;;21.50;99.90;;;;;;5095538;28;20424;-94
2023/10/31 12:08:27;;;;;;;0.30;0.30;;;21.60;99.90;;;;;;5090747;28;20444;-94
2023/10/31 12:10:53;;;;;;;0.30;0.20;;;21.60;99.90;;;;;;5091307;28;20978;-93
2023/10/31 12:13:19;;;;;;;0.30;0.20;;;21.60;99.90;;;;;;5093043;28;20452;-94
2023/10/31 12:15:52;;;;;;;0.30;0.20;;;21.70;99.90;;;;;;5096975;27;20182;-88
2023/10/31 12:18:18;;;;;;;0.30;0.20;;;21.80;99.90;;;;;;5093509;28;20440;-94
2023/10/31 12:20:49;;;;;;;0.30;0.20;;;21.80;99.90;;;;;;5101351;28;20420;-89
2023/10/31 12:23:15;;;;;;;0.30;0.20;;;21.90;99.90;;;;;;5084016;28;20451;-93
2023/10/31 12:25:54;;;;;;;0.30;0.30;;;21.90;99.90;;;;;;5080510;28;20450;-94
2023/10/31 12:28:23;;;;;;;0.30;0.20;;;21.90;99.90;;;;;;5092985;28;20581;-93
2023/10/31 12:30:54;;;;;;;0.40;0.30;;;22.00;99.90;;;;;;5092631;28;20878;-89
2023/10/31 12:33:24;;;;;;;0.30;0.30;;;22.00;99.90;;;;;;5087510;28;20525;-94
2023/10/31 12:36:00;;;;;;;0.57;0.57;;;22.00;99.90;;;;;;5086861;28;20445;-94
2023/10/31 12:38:27;;;;;;;0.30;0.20;;;22.10;99.80;;;;;;5097280;28;20472;-88
2023/10/31 12:40:57;;;;;;;0.30;0.30;;;22.20;99.80;;;;;;5098171;28;20405;-94
2023/10/31 12:43:23;;;;;;;0.30;0.20;;;22.30;99.60;;;;;;5101522;28;20451;-88
2023/10/31 12:45:49;;;;;;;1.83;1.27;;;22.50;98.10;;;;;;5098258;28;20423;-89
2023/10/31 12:48:17;;;;;;;0.30;0.20;;;22.60;98.20;;;;;;5092742;28;20464;-90
2023/10/31 12:50:44;;;;;;;0.30;0.20;;;22.60;98.10;;;;;;5092746;28;20248;-94
2023/10/31 12:53:11;;;;;;;0.30;0.20;;;22.80;98.10;;;;;;5091688;28;20453;-93
2023/10/31 12:55:41;;;;;;;0.30;0.20;;;22.80;98.10;;;;;;5089298;28;20641;-93
2023/10/31 12:58:19;;;;;;;0.30;0.20;;;22.90;97.40;;;;;;5103261;28;20437;-94
2023/10/31 13:00:46;;;;;;;0.30;0.20;;;23.00;97.40;;;;;;5095682;28;20974;-89
2023/10/31 13:03:11;;;;;;;0.30;0.20;;;23.00;97.60;;;;;;5092408;28;20542;-89
2023/10/31 13:05:40;;;;;;;0.30;0.20;;;23.10;97.60;;;;;;5100437;28;20469;-94
2023/10/31 13:08:15;;;;;;;0.30;0.20;;;23.10;97.50;;;;;;5098683;28;20208;-89
2023/10/31 13:10:40;;;;;;;0.30;0.20;;;23.00;97.30;;;;;;5082371;28;20430;-95
2023/10/31 13:13:09;;;;;;;0.30;0.20;;;23.00;97.50;;;;;;5094536;28;20454;-88
2023/10/31 13:15:37;;;;;;;0.30;0.20;;;22.90;97.70;;;;;;5092288;28;20222;-93
2023/10/31 13:18:07;;;;;;;0.30;0.20;;;22.90;97.70;;;;;;5090765;28;20435;-88
2023/10/31 13:20:32;;;;;;;0.30;0.20;;;22.80;97.60;;;;;;5087858;28;20992;-94
2023/10/31 13:23:02;;;;;;;0.30;0.30;;;22.80;97.90;;;;;;5094886;28;20761;-94
2023/10/31 13:25:28;;;;;;;0.30;0.20;;;22.70;97.90;;;;;;5093483;27;20196;-94
2023/10/31 13:27:54;;;;;;;0.30;0.20;;;22.60;98.40;;;;;;5100506;28;20826;-93
2023/10/31 13:30:24;;;;;;;0.30;0.30;;;22.50;98.80;;;;;;5091278;28;20241;-94
2023/10/31 13:32:49;;;;;;;0.40;0.30;;;22.30;99.90;;;;;;5093531;28;20417;-89
2023/10/31 13:35:16;;;;;;;0.40;0.40;;;22.00;99.90;;;;;;5090947;28;20596;-89
2023/10/31 13:37:42;;;;;;;0.30;0.20;;;21.50;99.90;;;;;;5093128;28;20616;-89
2023/10/31 13:40:08;;;;;;;0.30;0.20;;;21.00;99.90;;;;;;5091962;28;20933;-93
2023/10/31 13:42:35;;;;;;;0.30;0.20;;;20.70;99.90;;;;;;5101528;28;20729;-94
2023/10/31 13:45:01;;;;;;;17.37;3.00;;;20.50;99.90;;;;;;5097870;27;20430;-94
2023/10/31 13:47:29;;;;;;;0.30;0.20;;;20.20;99.90;;;;;;5086250;28;20559;-89
2023/10/31 13:49:59;;;;;;;0.30;0.20;;;20.00;99.90;;;;;;5092030;28;20559;-89
2023/10/31 13:52:25;;;;;;;0.30;0.20;;;19.80;99.90;;;;;;5097208;28;20474;-94
2023/10/31 13:54:50;;;;;;;0.30;0.20;;;19.60;99.90;;;;;;5086642;27;20496;-94
2023/10/31 13:57:17;;;;;;;0.30;0.20;;;19.40;99.90;;;;;;5100332;28;20180;-94
2023/10/31 13:59:43;;;;;;;0.40;0.20;;;19.40;99.90;;;;;;5096857;28;21136;-89
2023/10/31 14:02:08;;;;;;;0.30;0.20;;;19.20;99.90;;;;;;5086204;28;20447;-88
2023/10/31 14:04:37;;;;;;;0.30;0.20;;;19.10;99.90;;;;;;5091547;28;20235;-89
2023/10/31 14:07:05;;;;;;;0.30;0.20;;;19.00;99.90;;;;;;5094586;27;20198;-94
2023/10/31 14:09:31;;;;;;;0.40;0.37;;;19.00;99.90;;;;;;5104991;28;20461;-88
2023/10/31 14:11:58;;;;;;;0.30;0.20;;;18.90;99.90;;;;;;5108414;28;20935;-89
2023/10/31 14:14:27;;;;;;;0.30;0.20;;;18.80;99.90;;;;;;5104949;28;20223;-94
2023/10/31 14:16:53;;;;;;;0.30;0.20;;;18.70;99.90;;;;;;5093780;28;20474;-88
2023/10/31 14:19:18;;;;;;;0.50;0.50;;;18.70;99.90;;;;;;5096048;28;20436;-89
2023/10/31 14:21:48;;;;;;;0.30;0.20;;;18.70;99.90;;;;;;5093458;27;20219;-88
2023/10/31 14:24:13;;;;;;;0.30;0.20;;;18.60;99.90;;;;;;5094098;28;20195;-89
2023/10/31 14:26:42;;;;;;;0.30;0.20;;;18.50;99.90;;;;;;5088318;28;20439;-89
2023/10/31 14:29:08;;;;;;;0.30;0.20;;;18.50;99.90;;;;;;5091954;28;20466;-94
2023/10/31 14:31:43;;;;;;;0.40;0.20;;;18.40;99.90;;;;;;5087009;28;20416;-94
2023/10/31 14:34:09;;;;;;;0.30;0.20;;;18.30;99.90;;;;;;5084744;28;20240;-94
2023/10/31 14:36:36;;;;;;;0.30;0.20;;;18.10;99.90;;;;;;5091104;28;20425;-93
2023/10/31 14:39:08;;;;;;;0.30;0.20;;;18.10;99.90;;;;;;5089010;28;20601;-94
2023/10/31 14:41:35;;;;;;;0.30;0.20;;;18.00;99.90;;;;;;5090029;28;20579;-94
2023/10/31 14:44:04;;;;;;;0.30;0.20;;;17.90;99.90;;;;;;5093565;28;20463;-88
2023/10/31 14:46:33;;;;;;;0.30;0.20;;;17.90;99.90;;;;;;5098307;28;20731;-95
2023/10/31 14:48:59;;;;;;;0.30;0.20;;;17.80;99.90;;;;;;5090616;28;20871;-93
2023/10/31 14:51:36;;;;;;;0.30;0.20;;;17.70;99.90;;;;;;5089327;28;20485;-89
2023/10/31 14:54:01;;;;;;;0.30;0.20;;;17.70;99.90;;;;;;5094105;28;21045;-88
2023/10/31 14:56:29;;;;;;;0.30;0.30;;;17.60;99.90;;;;;;5089887;28;20437;-88
2023/10/31 14:58:56;;;;;;;0.30;0.20;;;17.50;99.90;;;;;;5095476;28;20253;-94
2023/10/31 15:01:22;;;;;;;0.30;0.20;;;17.50;99.90;;;;;;5089844;28;20452;-89
2023/10/31 15:03:48;;;;;;;0.30;0.20;;;17.50;99.90;;;;;;5099380;28;20445;-88
2023/10/31 15:06:15;;;;;;;0.30;0.20;;;17.40;99.90;;;;;;5089577;28;20261;-94
2023/10/31 15:08:41;;;;;;;0.40;0.40;;;17.40;99.90;;;;;;5091274;28;20466;-93
2023/10/31 15:11:16;;;;;;;0.30;0.20;;;17.50;99.90;;;;;;5091874;28;20960;-93
2023/10/31 15:13:44;;;;;;;0.30;0.20;;;17.50;99.90;;;;;;5088204;28;20298;-88
2023/10/31 15:16:09;;;;;;;0.30;0.20;;;17.50;99.90;;;;;;5090424;28;20475;-88
2023/10/31 15:18:36;;;;;;;0.30;0.20;;;17.50;99.90;;;;;;5090622;28;20460;-93
2023/10/31 15:21:06;;;;;;;0.30;0.20;;;17.50;99.90;;;;;;5089098;28;20517;-88
2023/10/31 15:23:42;;;;;;;0.30;0.20;;;17.50;99.90;;;;;;5090428;28;20445;-89
2023/10/31 15:26:12;;;;;;;0.30;0.20;;;17.50;99.90;;;;;;5087368;28;20453;-94
2023/10/31 15:28:43;;;;;;;0.97;0.77;;;17.50;99.90;;;;;;5092341;28;21008;-94
2023/10/31 15:31:10;;;;;;;1.43;1.17;;;17.40;99.90;;;;;;5090041;28;20536;-93
2023/10/31 15:33:36;;;;;;;0.30;0.20;;;17.40;99.90;;;;;;5084189;28;21051;-94
2023/10/31 15:36:04;;;;;;;0.30;0.20;;;17.30;99.90;;;;;;5093470;28;20821;-94
2023/10/31 15:38:30;;;;;;;0.30;0.20;;;17.20;99.90;;;;;;5092670;28;20437;-89
2023/10/31 15:40:56;;;;;;;0.30;0.20;;;17.10;99.90;;;;;;5088641;28;20429;-89
2023/10/31 15:43:22;;;;;;;1.60;1.57;;;17.00;99.90;;;;;;5095313;28;20639;-93
2023/10/31 15:45:48;;;;;;;0.30;0.20;;;17.00;99.90;;;;;;5093422;28;20242;-88
2023/10/31 15:48:25;;;;;;;0.30;0.20;;;16.90;99.90;;;;;;5092503;28;20479;-87
2023/10/31 15:50:52;;;;;;;0.30;0.20;;;16.90;99.90;;;;;;5087134;28;20465;-89
2023/10/31 15:53:18;;;;;;;0.30;0.20;;;16.90;99.90;;;;;;5087641;28;20444;-89
2023/10/31 15:55:45;;;;;;;0.30;0.20;;;16.80;99.90;;;;;;5084484;28;20564;-88
2023/10/31 15:58:12;;;;;;;0.30;0.20;;;16.80;99.90;;;;;;5087559;28;20441;-92
2023/10/31 16:00:41;;;;;;;0.30;0.20;;;16.80;99.90;;;;;;5091856;28;20435;-92
2023/10/31 16:03:07;;;;;;;0.30;0.20;;;16.70;99.90;;;;;;5089086;28;20437;-89
2023/10/31 16:05:33;;;;;;;0.30;0.20;;;16.60;99.90;;;;;;5093974;28;20869;-91
2023/10/31 16:07:59;;;;;;;0.30;0.20;;;16.50;99.90;;;;;;5093252;28;20436;-89
2023/10/31 16:10:25;;;;;;;0.30;0.20;;;16.40;99.90;;;;;;5095815;28;20432;-93
2023/10/31 16:12:51;;;;;;;1.50;1.00;;;16.40;99.90;;;;;;5099865;28;20413;-91
2023/10/31 16:15:17;;;;;;;1.47;1.37;;;16.40;99.90;;;;;;5090912;28;20231;-91
2023/10/31 16:17:45;;;;;;;1.50;1.30;;;16.40;99.90;;;;;;5078667;28;20464;-89
2023/10/31 16:20:12;;;;;;;0.30;0.20;;;16.50;99.90;;;;;;5085238;28;20588;-89
2023/10/31 16:22:39;;;;;;;0.30;0.20;;;16.40;99.90;;;;;;5088019;28;20468;-90
2023/10/31 16:25:06;;;;;;;0.30;0.20;;;16.50;99.90;;;;;;5089846;28;20424;-90
2023/10/31 16:27:32;;;;;;;0.60;0.60;;;16.50;99.90;;;;;;5088890;28;20504;-90
2023/10/31 16:29:59;;;;;;;0.30;0.20;;;16.50;99.90;;;;;;5085778;28;20471;-93
2023/10/31 16:32:28;;;;;;;0.63;0.63;;;16.40;99.90;;;;;;5084487;28;20779;-94
2023/10/31 16:34:55;;;;;;;4.27;0.97;;;16.50;99.90;;;;;;5088320;28;20928;-94
2023/10/31 16:37:21;;;;;;;0.30;0.20;;;16.60;99.90;;;;;;5089424;28;20443;-89
2023/10/31 16:39:47;;;;;;;0.30;0.20;;;16.70;99.90;;;;;;5087608;28;20488;-90
2023/10/31 16:42:15;;;;;;;0.30;0.20;;;16.70;99.90;;;;;;5090397;28;20412;-89
2023/10/31 16:44:46;;;;;;;0.30;0.20;;;16.50;99.90;;;;;;5092201;28;20238;-88
2023/10/31 16:47:13;;;;;;;0.50;0.50;;;16.50;99.90;;;;;;5094967;28;20448;-93
2023/10/31 16:49:39;;;;;;;4.33;4.17;;;16.40;99.90;;;;;;5087724;28;20461;-88
2023/10/31 16:52:05;;;;;;;0.30;0.20;;;16.40;99.90;;;;;;5091088;28;20428;-92
2023/10/31 16:54:31;;;;;;;0.30;0.20;;;16.30;99.90;;;;;;5089946;28;20540;-92
2023/10/31 16:56:57;;;;;;;0.73;0.60;;;16.30;99.90;;;;;;5096637;28;20905;-92
2023/10/31 16:59:24;;;;;;;0.30;0.20;;;16.20;99.90;;;;;;5092231;28;20697;-89
2023/10/31 17:01:49;;;;;;;0.30;0.20;;;16.20;99.90;;;;;;5094124;28;20452;-89
2023/10/31 17:04:16;;;;;;;0.30;0.20;;;16.10;99.90;;;;;;5098712;28;20504;-87
2023/10/31 17:06:43;;;;;;;0.30;0.20;;;16.10;99.90;;;;;;5102723;28;20172;-87
2023/10/31 17:09:09;;;;;;;0.63;0.63;;;16.00;99.90;;;;;;5095984;27;20436;-92
2023/10/31 17:11:40;;;;;;;0.30;0.20;;;16.00;99.90;;;;;;5097230;28;20570;-93
2023/10/31 17:14:08;;;;;;;1.13;1.07;;;16.00;99.90;;;;;;5099182;28;20467;-91
2023/10/31 17:16:35;;;;;;;1.37;1.33;;;16.10;99.90;;;;;;5100941;28;20409;-92
2023/10/31 17:19:01;;;;;;;0.30;0.20;;;16.10;99.90;;;;;;5098805;28;20436;-93
2023/10/31 17:21:29;;;;;;;0.30;0.20;;;16.10;99.90;;;;;;5093393;28;20931;-94
2023/10/31 17:24:12;;;;;;;0.50;0.50;;;16.10;99.90;;;;;;5094562;28;20454;-89
2023/10/31 17:26:38;;;;;;;0.30;0.20;;;16.10;99.90;;;;;;5098400;28;20803;-88
2023/10/31 17:29:14;;;;;;;0.30;0.20;;;16.10;99.90;;;;;;5093598;28;21085;-89
2023/10/31 17:31:40;;;;;;;0.30;0.20;;;16.10;99.90;;;;;;5094666;28;20415;-89
2023/10/31 17:34:06;;;;;;;0.40;0.40;;;16.00;99.90;;;;;;5092858;28;20557;-89
2023/10/31 17:36:35;;;;;;;0.30;0.20;;;16.10;99.90;;;;;;5095802;28;20476;-89
2023/10/31 17:39:01;;;;;;;0.30;0.20;;;16.10;99.90;;;;;;5098288;28;20276;-94
2023/10/31 17:41:30;;;;;;;0.30;0.20;;;16.10;99.90;;;;;;5094345;28;20523;-89
2023/10/31 17:43:59;;;;;;;3.60;3.40;;;16.20;99.90;;;;;;5096844;28;20200;-94
2023/10/31 17:46:24;;;;;;;0.30;0.20;;;16.20;99.90;;;;;;5094840;28;20691;-92
2023/10/31 17:48:52;;;;;;;0.30;0.20;;;16.20;99.90;;;;;;5096398;28;20586;-93
2023/10/31 17:51:17;;;;;;;0.30;0.20;;;16.30;99.90;;;;;;5088992;28;20192;-93
2023/10/31 17:53:43;;;;;;;0.30;0.20;;;16.30;99.90;;;;;;5096668;28;20451;-93
2023/10/31 17:56:09;;;;;;;1.90;1.80;;;16.30;99.90;;;;;;5099311;27;20243;-91
2023/10/31 17:58:35;;;;;;;0.30;0.20;;;16.30;99.90;;;;;;5105737;27;20527;-88
2023/10/31 18:01:00;;;;;;;0.30;0.20;;;16.30;99.90;;;;;;5094389;28;20275;-92
2023/10/31 18:03:28;;;;;;;0.30;0.20;;;16.30;99.90;;;;;;5091358;28;20279;-88
2023/10/31 18:05:54;;;;;;;0.30;0.20;;;16.30;99.90;;;;;;5090820;28;20352;-89
2023/10/31 18:08:20;;;;;;;0.30;0.20;;;16.30;99.90;;;;;;5086313;28;20566;-94
2023/10/31 18:10:46;;;;;;;0.30;0.20;;;16.30;99.90;;;;;;5085995;28;20173;-89
2023/10/31 18:13:12;;;;;;;1.07;1.07;;;16.30;99.90;;;;;;5085059;28;20505;-93
2023/10/31 18:15:38;;;;;;;0.30;0.20;;;16.30;99.90;;;;;;5096810;28;20488;-93
2023/10/31 18:18:04;;;;;;;0.30;0.20;;;16.30;99.90;;;;;;5100840;28;20204;-93
2023/10/31 18:20:30;;;;;;;0.30;0.20;;;16.30;99.90;;;;;;5101098;28;20175;-93
2023/10/31 18:22:57;;;;;;;0.30;0.20;;;16.30;99.90;;;;;;5081905;28;21018;-88
2023/10/31 18:25:23;;;;;;;0.30;0.20;;;16.30;99.90;;;;;;5082618;28;20773;-89
2023/10/31 18:27:49;;;;;;;0.30;0.20;;;16.20;99.90;;;;;;5082691;28;20520;-93
2023/10/31 18:30:15;;;;;;;0.30;0.20;;;16.20;99.90;;;;;;5103272;28;20412;-89
2023/10/31 18:32:41;;;;;;;6.83;6.33;;;16.10;99.90;;;;;;5102218;28;20432;-93
2023/10/31 18:35:07;;;;;;;1.17;1.07;;;16.10;99.90;;;;;;5089614;28;20372;-90
2023/10/31 18:37:33;;;;;;;0.30;0.30;;;16.10;99.90;;;;;;5086686;28;20229;-89
2023/10/31 18:39:59;;;;;;;0.40;0.40;;;16.00;99.90;;;;;;5095672;28;20929;-89
2023/10/31 18:42:25;;;;;;;0.30;0.20;;;16.00;99.90;;;;;;5093717;28;20378;-90
2023/10/31 18:44:50;;;;;;;0.30;0.20;;;16.00;99.90;;;;;;5102055;28;20436;-88
2023/10/31 18:47:16;;;;;;;0.30;0.20;;;16.00;99.90;;;;;;5104108;28;20184;-89
2023/10/31 18:49:42;;;;;;;0.30;0.20;;;16.00;99.90;;;;;;5108026;28;20739;-89
2023/10/31 18:52:08;;;;;;;0.30;0.20;;;16.00;99.90;;;;;;5106028;28;20191;-93
2023/10/31 18:54:34;;;;;;;0.40;0.40;;;16.00;99.90;;;;;;5097899;28;20306;-93
2023/10/31 18:56:59;;;;;;;0.30;0.20;;;16.00;99.90;;;;;;5096818;28;20536;-89
2023/10/31 18:59:25;;;;;;;0.30;0.30;;;16.00;99.90;;;;;;5094607;28;20199;-93
2023/10/31 19:01:54;;;;;;;0.30;0.20;;;16.00;99.90;;;;;;5106086;28;20222;-89
2023/10/31 19:04:23;;;;;;;0.53;0.50;;;16.00;99.90;;;;;;5091717;28;20429;-93
2023/10/31 19:06:50;;;;;;;0.30;0.20;;;16.00;99.90;;;;;;5089041;28;20948;-93
2023/10/31 19:09:16;;;;;;;0.30;0.20;;;16.00;99.90;;;;;;5088575;28;20441;-92
2023/10/31 19:11:42;;;;;;;0.30;0.20;;;15.90;99.90;;;;;;5090757;27;20449;-89
2023/10/31 19:14:08;;;;;;;0.30;0.20;;;15.90;99.90;;;;;;5101141;27;20456;-92
2023/10/31 19:16:34;;;;;;;1.57;1.13;;;15.90;99.90;;;;;;5097774;28;20436;-92
2023/10/31 19:19:00;;;;;;;0.30;0.20;;;15.90;99.90;;;;;;5102335;27;20840;-92
2023/10/31 19:21:25;;;;;;;2.40;2.30;;;15.80;99.90;;;;;;5098252;28;20436;-93
2023/10/31 19:23:51;;;;;;;0.30;0.20;;;15.80;99.90;;;;;;5100978;27;20590;-89
2023/10/31 19:26:18;;;;;;;1.30;1.27;;;15.80;99.90;;;;;;5089006;28;20216;-91
2023/10/31 19:28:44;;;;;;;0.30;0.20;;;15.80;99.90;;;;;;5102309;27;20662;-87
2023/10/31 19:31:09;;;;;;;0.40;0.37;;;15.70;99.90;;;;;;5097130;27;20536;-91
2023/10/31 19:33:35;;;;;;;0.30;0.20;;;15.70;99.90;;;;;;5097846;28;20544;-86
2023/10/31 19:36:01;;;;;;;0.30;0.20;;;15.70;99.90;;;;;;5100237;28;20406;-87
2023/10/31 19:38:28;;;;;;;0.30;0.20;;;15.70;99.90;;;;;;5097134;28;20345;-87
2023/10/31 19:40:54;;;;;;;2.33;2.00;;;15.60;99.90;;;;;;5100445;28;20216;-87
2023/10/31 19:43:20;;;;;;;0.30;0.20;;;15.60;99.90;;;;;;5099259;28;20634;-91
2023/10/31 19:45:46;;;;;;;0.30;0.20;;;15.60;99.90;;;;;;5105456;27;20191;-89
2023/10/31 19:48:12;;;;;;;0.30;0.20;;;15.60;99.90;;;;;;5102076;27;20693;-91
2023/10/31 19:50:38;;;;;;;0.30;0.20;;;15.60;99.90;;;;;;5101082;27;20722;-89
2023/10/31 19:53:04;;;;;;;0.30;0.20;;;15.60;99.90;;;;;;5103364;28;20790;-90
2023/10/31 19:55:29;;;;;;;0.40;0.40;;;15.50;99.90;;;;;;5111263;28;20461;-89
2023/10/31 19:57:55;;;;;;;0.30;0.20;;;15.50;99.90;;;;;;5111014;28;20283;-89
2023/10/31 20:00:24;;;;;;;0.30;0.20;;;15.50;99.90;;;;;;5105947;28;20184;-90
2023/10/31 20:02:50;;;;;;;0.30;0.20;;;15.50;99.90;;;;;;5116426;27;20911;-93
2023/10/31 20:05:17;;;;;;;0.30;0.20;;;15.40;99.90;;;;;;5107365;27;21123;-92
2023/10/31 20:07:43;;;;;;;0.30;0.20;;;15.30;99.90;;;;;;5105921;28;21007;-92
2023/10/31 20:10:09;;;;;;;0.30;0.20;;;15.30;99.90;;;;;;5105808;28;20491;-89
2023/10/31 20:12:35;;;;;;;0.30;0.20;;;15.30;99.90;;;;;;5103851;28;20176;-89
2023/10/31 20:15:01;;;;;;;0.30;0.20;;;15.30;99.90;;;;;;5104076;28;20767;-89
2023/10/31 20:17:33;;;;;;;0.30;0.20;;;15.30;99.90;;;;;;5103756;28;20207;-89
2023/10/31 20:19:59;;;;;;;0.30;0.20;;;15.30;99.90;;;;;;5093229;28;20464;-92
2023/10/31 20:22:25;;;;;;;0.30;0.20;;;15.30;99.90;;;;;;5099106;28;20471;-89
2023/10/31 20:24:51;;;;;;;0.73;0.60;;;15.20;99.90;;;;;;5093145;27;20196;-88
2023/10/31 20:27:16;;;;;;;0.30;0.20;;;15.20;99.90;;;;;;5098575;28;20432;-91
2023/10/31 20:29:42;;;;;;;0.30;0.20;;;15.20;99.90;;;;;;5103445;28;20187;-93
2023/10/31 20:32:08;;;;;;;0.30;0.20;;;15.20;99.90;;;;;;5097903;28;20188;-93
2023/10/31 20:34:35;;;;;;;0.30;0.20;;;15.20;99.90;;;;;;5092026;28;20529;-89
2023/10/31 20:37:00;;;;;;;0.30;0.20;;;15.20;99.90;;;;;;5124620;28;20866;-93
2023/10/31 20:39:27;;;;;;;0.30;0.20;;;15.10;99.90;;;;;;5106090;28;20499;-87
2023/10/31 20:41:52;;;;;;;0.30;0.30;;;15.20;99.90;;;;;;5104502;28;20204;-91
2023/10/31 20:44:18;;;;;;;0.30;0.20;;;15.20;99.90;;;;;;5102007;28;20436;-86
2023/10/31 20:46:44;;;;;;;1.23;0.80;;;15.10;99.90;;;;;;5103299;28;20176;-87
2023/10/31 20:49:10;;;;;;;0.30;0.20;;;15.10;99.90;;;;;;5104581;28;20207;-91
2023/10/31 20:51:36;;;;;;;1.33;1.13;;;15.10;99.90;;;;;;5108477;28;20447;-91
2023/10/31 20:54:02;;;;;;;0.30;0.20;;;15.10;99.90;;;;;;5114742;28;20695;-87
2023/10/31 20:56:28;;;;;;;0.30;0.20;;;15.10;99.90;;;;;;5101436;28;21098;-88
2023/10/31 20:58:54;;;;;;;0.30;0.20;;;15.10;99.90;;;;;;5099525;28;20445;-87
2023/10/31 21:01:20;;;;;;;0.30;0.20;;;15.00;99.90;;;;;;5098432;28;20416;-91
2023/10/31 21:03:46;;;;;;;0.30;0.20;;;15.00;99.90;;;;;;5095609;28;20449;-91
2023/10/31 21:06:12;;;;;;;0.30;0.30;;;15.00;99.90;;;;;;5099253;28;20218;-91
2023/10/31 21:08:37;;;;;;;0.30;0.20;;;15.00;99.90;;;;;;5096814;28;20940;-87
2023/10/31 21:11:05;;;;;;;0.30;0.20;;;15.00;99.90;;;;;;5103353;28;20662;-88
2023/10/31 21:13:31;;;;;;;0.30;0.20;;;15.00;99.90;;;;;;5103461;28;20862;-88
2023/10/31 21:15:56;;;;;;;0.30;0.20;;;15.00;99.90;;;;;;5106753;28;20433;-91
2023/10/31 21:18:22;;;;;;;0.30;0.20;;;14.90;99.90;;;;;;5092402;28;20742;-88
2023/10/31 21:20:47;;;;;;;0.30;0.20;;;14.90;99.90;;;;;;5093585;28;20184;-90
2023/10/31 21:23:16;;;;;;;0.30;0.20;;;15.00;99.90;;;;;;5103918;28;20206;-86